Time;durP1;ratioP1;P1;durP2;ratioP2;P2;SDS_P1;SDS_P2;PMS_P1;PMS_P2;Temp;Humidity;BMP_temperature;BMP_pressure;BME280_temperature;BME280_humidity;BME280_pressure;Samples;Min_cycle;Max_cycle;Signal;HPM_P1;HPM_P2
2023/01/12 00:00:35;;;;;;;9.23;3.40;;;;;;;;;;5014959;28;20574;-43
2023/01/12 00:03:01;;;;;;;10.97;2.77;;;;;;;;;;5012654;28;20418;-43
2023/01/12 00:05:27;;;;;;;13.53;3.20;;;;;;;;;;5014991;28;20498;-42
2023/01/12 00:07:53;;;;;;;11.40;3.50;;;;;;;;;;5014213;28;20508;-43
2023/01/12 00:10:19;;;;;;;7.97;2.53;;;;;;;;;;5010439;28;20434;-44
2023/01/12 00:12:45;;;;;;;8.40;2.50;;;;;;;;;;5010928;28;20413;-43
2023/01/12 00:15:11;;;;;;;5.67;2.33;;;;;;;;;;5014401;28;20780;-43
2023/01/12 00:17:37;;;;;;;8.73;2.40;;;;;;;;;;5013782;28;20429;-43
2023/01/12 00:20:05;;;;;;;13.47;2.30;;;;;;;;;;5010289;28;20467;-44
2023/01/12 00:22:31;;;;;;;4.90;2.87;;;;;;;;;;5014269;28;20930;-42
2023/01/12 00:24:57;;;;;;;3.80;2.03;;;;;;;;;;5006956;28;20421;-43
2023/01/12 00:27:22;;;;;;;5.13;2.70;;;;;;;;;;5012993;28;20824;-43
2023/01/12 00:29:49;;;;;;;11.27;4.17;;;;;;;;;;5013850;28;20875;-43
2023/01/12 00:32:16;;;;;;;4.30;2.13;;;;;;;;;;5014295;28;20409;-43
2023/01/12 00:34:42;;;;;;;14.67;2.73;;;;;;;;;;5010529;28;20412;-44
2023/01/12 00:37:08;;;;;;;7.13;2.60;;;;;;;;;;5008131;28;20425;-44
2023/01/12 00:39:38;;;;;;;10.00;2.33;;;;;;;;;;5006651;28;20445;-43
2023/01/12 00:47:34;;;;;;;5.43;1.87;;;;;;;;;;5009824;28;20524;-43
2023/01/12 00:49:59;;;;;;;7.07;3.00;;;;;;;;;;5013670;28;20959;-44
2023/01/12 00:52:27;;;;;;;16.70;3.17;;;;;;;;;;5009655;28;20416;-43
2023/01/12 00:54:53;;;;;;;6.67;2.70;;;;;;;;;;5011312;28;20413;-43
2023/01/12 00:57:19;;;;;;;7.57;3.00;;;;;;;;;;5013362;28;20898;-43
2023/01/12 00:59:46;;;;;;;4.60;2.50;;;;;;;;;;5013591;28;20997;-43
2023/01/12 01:02:12;;;;;;;8.03;2.60;;;;;;;;;;5009628;28;20417;-44
2023/01/12 01:04:38;;;;;;;8.43;2.27;;;;;;;;;;5013446;28;20475;-44
2023/01/12 01:07:04;;;;;;;7.57;2.77;;;;;;;;;;5011897;28;20500;-44
2023/01/12 01:09:30;;;;;;;16.37;3.33;;;;;;;;;;5013178;28;20466;-44
2023/01/12 01:11:56;;;;;;;7.67;2.90;;;;;;;;;;5013683;28;20413;-42
2023/01/12 01:14:22;;;;;;;5.40;3.30;;;;;;;;;;5013579;28;20459;-44
2023/01/12 01:16:48;;;;;;;10.83;3.87;;;;;;;;;;5010499;28;20500;-43
2023/01/12 01:19:15;;;;;;;8.43;3.40;;;;;;;;;;5013245;28;20831;-43
2023/01/12 01:21:41;;;;;;;9.07;4.13;;;;;;;;;;5006447;28;20499;-43
2023/01/12 01:24:10;;;;;;;13.60;3.23;;;;;;;;;;5012912;28;20420;-43
2023/01/12 01:26:36;;;;;;;9.20;2.83;;;;;;;;;;5012913;28;20444;-43
2023/01/12 01:29:02;;;;;;;14.57;3.63;;;;;;;;;;5011223;28;20432;-44
2023/01/12 01:31:28;;;;;;;10.50;2.77;;;;;;;;;;5007107;28;20419;-43
2023/01/12 01:33:54;;;;;;;9.27;3.97;;;;;;;;;;5012100;28;20916;-43
2023/01/12 01:36:20;;;;;;;13.60;3.50;;;;;;;;;;5012604;28;20475;-44
2023/01/12 01:38:47;;;;;;;6.33;2.80;;;;;;;;;;5008361;28;20449;-44
2023/01/12 01:41:18;;;;;;;5.53;3.10;;;;;;;;;;5012614;28;20469;-44
2023/01/12 01:43:48;;;;;;;13.23;3.50;;;;;;;;;;5005552;28;20422;-44
2023/01/12 01:46:16;;;;;;;8.33;3.37;;;;;;;;;;5011783;28;20909;-44
2023/01/12 01:48:43;;;;;;;8.57;3.00;;;;;;;;;;5012080;28;20444;-44
2023/01/12 01:51:11;;;;;;;8.50;3.20;;;;;;;;;;5011527;28;20417;-43
2023/01/12 01:53:39;;;;;;;9.73;3.80;;;;;;;;;;5008949;28;20475;-44
2023/01/12 01:56:11;;;;;;;7.97;3.60;;;;;;;;;;5018391;28;20408;-44
2023/01/12 01:58:42;;;;;;;16.07;4.00;;;;;;;;;;5010017;28;20949;-44
2023/01/12 02:01:09;;;;;;;7.80;3.40;;;;;;;;;;5009135;28;20834;-43
2023/01/12 02:03:35;;;;;;;10.63;3.50;;;;;;;;;;5004068;28;20428;-43
2023/01/12 02:06:01;;;;;;;8.33;3.57;;;;;;;;;;5011788;28;20512;-43
2023/01/12 02:08:45;;;;;;;17.97;3.77;;;;;;;;;;5008082;28;20529;-44
2023/01/12 02:16:55;;;;;;;5.27;3.33;;;;;;;;;;5006033;28;20465;-44
2023/01/12 02:19:27;;;;;;;11.87;2.67;;;;;;;;;;5003911;28;20960;-44
2023/01/12 02:22:12;;;;;;;11.57;4.63;;;;;;;;;;5011624;28;20468;-44
2023/01/12 02:24:57;;;;;;;7.60;2.77;;;;;;;;;;5008262;28;20410;-44
2023/01/12 02:27:38;;;;;;;6.90;2.60;;;;;;;;;;5005199;28;20452;-43
2023/01/12 02:30:22;;;;;;;9.03;2.90;;;;;;;;;;5009451;28;20435;-43
2023/01/12 02:32:48;;;;;;;12.13;3.30;;;;;;;;;;5007922;28;20405;-44
2023/01/12 02:35:33;;;;;;;8.20;3.10;;;;;;;;;;5012039;28;20781;-45
2023/01/12 02:38:01;;;;;;;24.37;4.57;;;;;;;;;;5009892;28;20421;-44
2023/01/12 02:40:33;;;;;;;10.30;3.30;;;;;;;;;;5007381;28;20468;-44
2023/01/12 02:43:02;;;;;;;6.80;3.30;;;;;;;;;;5011509;28;20472;-44
2023/01/12 02:45:34;;;;;;;14.93;3.80;;;;;;;;;;5004267;28;20420;-44
2023/01/12 02:48:05;;;;;;;10.27;3.50;;;;;;;;;;5010152;28;20940;-43
2023/01/12 02:50:39;;;;;;;19.10;3.50;;;;;;;;;;5008771;28;20429;-43
2023/01/12 02:53:09;;;;;;;9.40;2.80;;;;;;;;;;5011573;28;20508;-43
2023/01/12 02:55:36;;;;;;;7.20;2.93;;;;;;;;;;5010512;28;20417;-44
2023/01/12 02:58:03;;;;;;;7.10;2.87;;;;;;;;;;5011035;28;20998;-43
2023/01/12 03:00:30;;;;;;;6.43;2.67;;;;;;;;;;5011344;28;20460;-44
2023/01/12 03:02:56;;;;;;;19.43;4.67;;;;;;;;;;5014689;28;20416;-43
2023/01/12 03:05:21;;;;;;;16.87;3.70;;;;;;;;;;5013581;28;21014;-44
2023/01/12 03:08:08;;;;;;;14.97;4.07;;;;;;;;;;5015776;28;20905;-44
2023/01/12 03:10:40;;;;;;;14.03;3.50;;;;;;;;;;5009748;28;20842;-44
2023/01/12 03:13:08;;;;;;;11.80;3.40;;;;;;;;;;5015846;28;20774;-43
2023/01/12 03:15:36;;;;;;;13.40;3.23;;;;;;;;;;5015729;28;20424;-44
2023/01/12 03:18:04;;;;;;;15.17;3.10;;;;;;;;;;5013034;28;20427;-44
2023/01/12 03:20:32;;;;;;;10.73;3.37;;;;;;;;;;5015597;28;20469;-43
2023/01/12 03:23:02;;;;;;;14.30;3.37;;;;;;;;;;5016142;28;20443;-45
2023/01/12 03:25:31;;;;;;;19.07;3.93;;;;;;;;;;5010179;28;20919;-44
2023/01/12 03:27:59;;;;;;;8.97;3.07;;;;;;;;;;5007773;28;20781;-44
2023/01/12 03:30:42;;;;;;;12.50;3.63;;;;;;;;;;5013932;28;20424;-44
2023/01/12 03:33:09;;;;;;;13.43;4.00;;;;;;;;;;5012459;28;20909;-44
2023/01/12 03:35:38;;;;;;;11.07;3.30;;;;;;;;;;5014620;28;20421;-44
2023/01/12 03:38:11;;;;;;;20.50;4.20;;;;;;;;;;5008780;28;20436;-44
2023/01/12 03:40:39;;;;;;;7.70;3.57;;;;;;;;;;5014354;28;20458;-44
2023/01/12 03:43:25;;;;;;;16.20;3.37;;;;;;;;;;5014567;28;20412;-44
2023/01/12 03:45:57;;;;;;;7.63;3.53;;;;;;;;;;4994601;28;20425;-44
2023/01/12 03:48:33;;;;;;;11.17;3.33;;;;;;;;;;5014223;28;20437;-44
2023/01/12 03:51:02;;;;;;;15.40;2.70;;;;;;;;;;5014051;28;20429;-44
2023/01/12 03:53:29;;;;;;;20.53;3.47;;;;;;;;;;5009029;28;20426;-43
2023/01/12 03:55:57;;;;;;;15.77;3.90;;;;;;;;;;5014312;28;20556;-44
2023/01/12 03:58:23;;;;;;;15.90;3.10;;;;;;;;;;5009674;28;20441;-44
2023/01/12 04:00:49;;;;;;;9.70;2.70;;;;;;;;;;5013942;28;20457;-44
2023/01/12 04:03:16;;;;;;;8.73;2.80;;;;;;;;;;5014293;28;20416;-44
2023/01/12 04:05:42;;;;;;;7.23;2.27;;;;;;;;;;5013986;28;20552;-45
2023/01/12 04:08:09;;;;;;;12.50;3.40;;;;;;;;;;5013915;28;20410;-44
2023/01/12 04:10:35;;;;;;;8.83;2.47;;;;;;;;;;5014007;28;21004;-44
2023/01/12 04:13:01;;;;;;;5.20;2.40;;;;;;;;;;5013111;28;20950;-45
2023/01/12 04:15:27;;;;;;;11.00;2.57;;;;;;;;;;5008844;28;20418;-44
2023/01/12 04:17:53;;;;;;;7.20;2.80;;;;;;;;;;5013522;28;20491;-44
2023/01/12 04:20:19;;;;;;;5.03;2.17;;;;;;;;;;5013540;28;20469;-44
2023/01/12 04:22:45;;;;;;;8.70;2.40;;;;;;;;;;5013726;28;20834;-45
2023/01/12 04:25:11;;;;;;;12.73;2.43;;;;;;;;;;5013937;28;20767;-44
2023/01/12 04:27:40;;;;;;;11.63;2.53;;;;;;;;;;5010180;28;20415;-44
2023/01/12 04:30:07;;;;;;;9.13;2.70;;;;;;;;;;5008326;28;20437;-44
2023/01/12 04:32:33;;;;;;;7.53;2.80;;;;;;;;;;5013583;28;20508;-45
2023/01/12 04:34:59;;;;;;;6.60;2.43;;;;;;;;;;5013535;28;20421;-44
2023/01/12 04:37:24;;;;;;;13.33;3.63;;;;;;;;;;5008884;28;20930;-44
2023/01/12 04:39:50;;;;;;;13.70;4.03;;;;;;;;;;5013314;28;20479;-44
2023/01/12 04:45:01;;;;;;;10.00;3.87;;;;;;;;;;5012331;28;20414;-45
2023/01/12 04:47:27;;;;;;;9.03;2.23;;;;;;;;;;5012119;28;20774;-44
2023/01/12 04:49:53;;;;;;;11.30;2.93;;;;;;;;;;5011130;28;20430;-45
2023/01/12 04:52:19;;;;;;;5.33;2.20;;;;;;;;;;5013188;28;20412;-45
2023/01/12 04:54:45;;;;;;;5.17;2.37;;;;;;;;;;5007218;28;20908;-45
2023/01/12 04:57:11;;;;;;;5.27;2.90;;;;;;;;;;5011322;28;20413;-44
2023/01/12 04:59:37;;;;;;;11.20;2.83;;;;;;;;;;5013105;28;20437;-44
2023/01/12 05:02:03;;;;;;;9.17;2.30;;;;;;;;;;5009874;28;20472;-44
2023/01/12 05:04:29;;;;;;;9.40;3.03;;;;;;;;;;5013272;28;20425;-44
2023/01/12 05:06:55;;;;;;;5.50;2.43;;;;;;;;;;5012929;28;20944;-45
2023/01/12 05:12:05;;;;;;;5.67;2.33;;;;;;;;;;5012845;28;20501;-45
2023/01/12 05:14:31;;;;;;;3.07;1.80;;;;;;;;;;5012798;28;20880;-44
2023/01/12 05:16:58;;;;;;;10.37;3.37;;;;;;;;;;5009958;28;20513;-45
2023/01/12 05:19:24;;;;;;;12.10;3.07;;;;;;;;;;5012497;28;20438;-45
2023/01/12 05:21:50;;;;;;;10.30;2.07;;;;;;;;;;5011674;28;20461;-45
2023/01/12 05:24:16;;;;;;;4.50;2.27;;;;;;;;;;5012797;28;20417;-45
2023/01/12 05:26:42;;;;;;;3.70;1.97;;;;;;;;;;5013097;28;20496;-45
2023/01/12 05:29:08;;;;;;;5.00;2.60;;;;;;;;;;5012139;28;20472;-45
2023/01/12 05:31:34;;;;;;;7.03;2.20;;;;;;;;;;5009966;28;20413;-46
2023/01/12 05:34:00;;;;;;;5.10;1.90;;;;;;;;;;5008408;28;20417;-46
2023/01/12 05:36:26;;;;;;;3.43;1.77;;;;;;;;;;5012401;28;20964;-46
2023/01/12 05:38:52;;;;;;;5.80;2.57;;;;;;;;;;5004830;28;20464;-46
2023/01/12 05:41:18;;;;;;;3.97;2.30;;;;;;;;;;5011317;28;20482;-46
2023/01/12 05:43:50;;;;;;;5.87;2.30;;;;;;;;;;5012214;28;20454;-46
2023/01/12 05:46:20;;;;;;;1.80;1.70;;;;;;;;;;5012964;28;20418;-46
2023/01/12 05:48:46;;;;;;;9.07;1.60;;;;;;;;;;5000872;28;20674;-46
2023/01/12 05:51:12;;;;;;;5.73;1.87;;;;;;;;;;5012088;28;20442;-45
2023/01/12 05:53:40;;;;;;;2.40;1.70;;;;;;;;;;5004911;28;20768;-46
2023/01/12 05:56:07;;;;;;;2.27;2.07;;;;;;;;;;5011084;28;20503;-46
2023/01/12 05:58:34;;;;;;;5.37;1.70;;;;;;;;;;5012065;28;20453;-46
2023/01/12 06:01:00;;;;;;;3.00;1.63;;;;;;;;;;5007900;28;20480;-47
2023/01/12 06:03:26;;;;;;;4.30;1.70;;;;;;;;;;5011883;28;20413;-46
2023/01/12 06:05:53;;;;;;;4.67;1.50;;;;;;;;;;5011455;28;20405;-46
2023/01/12 06:08:18;;;;;;;7.43;1.90;;;;;;;;;;5006628;28;20427;-45
2023/01/12 06:10:44;;;;;;;5.83;1.50;;;;;;;;;;5010483;28;20431;-46
2023/01/12 06:16:04;;;;;;;1.50;1.40;;;;;;;;;;5007605;28;20433;-46
2023/01/12 06:18:34;;;;;;;1.67;1.50;;;;;;;;;;5009713;28;20816;-46
2023/01/12 06:21:00;;;;;;;2.90;1.30;;;;;;;;;;5009740;28;20491;-46
2023/01/12 06:23:26;;;;;;;1.30;1.20;;;;;;;;;;5011407;28;20478;-46
2023/01/12 06:25:52;;;;;;;3.13;1.40;;;;;;;;;;5009615;28;20409;-46
2023/01/12 06:28:18;;;;;;;1.93;1.83;;;;;;;;;;5011265;28;21000;-47
2023/01/12 06:30:44;;;;;;;2.00;1.40;;;;;;;;;;5011720;28;20415;-46
2023/01/12 06:33:10;;;;;;;1.80;1.47;;;;;;;;;;5011811;28;20485;-46
2023/01/12 06:35:36;;;;;;;9.63;3.67;;;;;;;;;;5004586;28;20478;-46
2023/01/12 06:38:02;;;;;;;4.07;1.80;;;;;;;;;;5017176;28;20422;-46
2023/01/12 06:40:28;;;;;;;2.70;1.53;;;;;;;;;;5017697;28;20471;-46
2023/01/12 06:42:54;;;;;;;1.40;1.30;;;;;;;;;;5016988;28;20465;-47
2023/01/12 06:45:20;;;;;;;1.60;1.30;;;;;;;;;;5017782;28;20727;-46
2023/01/12 06:47:47;;;;;;;6.80;1.87;;;;;;;;;;5014738;28;20484;-47
2023/01/12 06:50:14;;;;;;;4.17;1.97;;;;;;;;;;5017697;28;20446;-47
2023/01/12 06:52:40;;;;;;;2.27;1.93;;;;;;;;;;5011430;28;20930;-46
2023/01/12 06:55:06;;;;;;;1.40;1.30;;;;;;;;;;5020150;28;20433;-47
2023/01/12 06:57:32;;;;;;;2.73;2.53;;;;;;;;;;5019306;28;20421;-47
2023/01/12 06:59:58;;;;;;;7.87;1.60;;;;;;;;;;5019793;28;20444;-46
2023/01/12 07:02:25;;;;;;;1.93;1.40;;;;;;;;;;5016844;28;20436;-47
2023/01/12 07:04:51;;;;;;;2.57;1.80;;;;;;;;;;5015005;28;20446;-46
2023/01/12 07:07:17;;;;;;;2.07;1.93;;;;;;;;;;5002138;28;20504;-47
2023/01/12 07:09:43;;;;;;;2.80;1.60;;;;;;;;;;5018325;28;20450;-45
2023/01/12 07:12:12;;;;;;;2.90;1.33;;;;;;;;;;5019374;28;20412;-46
2023/01/12 07:14:38;;;;;;;4.73;1.70;;;;;;;;;;5003262;28;20426;-46
2023/01/12 07:17:04;;;;;;;2.23;1.77;;;;;;;;;;5014907;28;20480;-46
2023/01/12 07:19:30;;;;;;;4.47;2.00;;;;;;;;;;5017398;28;20954;-47
2023/01/12 07:21:56;;;;;;;1.60;1.50;;;;;;;;;;5017829;28;20939;-46
2023/01/12 07:24:22;;;;;;;4.40;2.03;;;;;;;;;;5017812;28;20781;-47
2023/01/12 07:26:49;;;;;;;1.93;1.80;;;;;;;;;;5016148;28;20772;-46
2023/01/12 07:29:15;;;;;;;3.40;2.10;;;;;;;;;;5017516;28;20788;-47
2023/01/12 07:31:43;;;;;;;5.00;1.90;;;;;;;;;;5015433;28;20912;-46
2023/01/12 07:34:09;;;;;;;7.97;2.17;;;;;;;;;;5002903;28;20430;-47
2023/01/12 07:36:35;;;;;;;2.23;1.80;;;;;;;;;;5022372;28;20505;-47
2023/01/12 07:39:01;;;;;;;4.70;1.70;;;;;;;;;;5018624;28;20814;-48
2023/01/12 07:44:11;;;;;;;6.07;2.40;;;;;;;;;;5009786;28;20403;-47
2023/01/12 07:46:37;;;;;;;3.60;2.63;;;;;;;;;;5017152;28;20401;-47
2023/01/12 07:49:03;;;;;;;2.57;2.10;;;;;;;;;;5013476;28;20787;-47
2023/01/12 07:51:30;;;;;;;7.80;2.67;;;;;;;;;;5011938;28;20432;-47
2023/01/12 07:53:56;;;;;;;5.63;2.27;;;;;;;;;;5015428;28;20901;-46
2023/01/12 07:56:22;;;;;;;2.40;2.07;;;;;;;;;;5014125;28;20419;-46
2023/01/12 07:58:49;;;;;;;3.70;2.47;;;;;;;;;;5005862;28;20539;-47
2023/01/12 08:01:15;;;;;;;6.63;2.60;;;;;;;;;;5013378;28;20526;-46
2023/01/12 08:03:41;;;;;;;5.03;2.57;;;;;;;;;;5012866;28;20425;-45
2023/01/12 08:06:07;;;;;;;5.20;2.50;;;;;;;;;;5013993;28;20420;-46
2023/01/12 08:08:34;;;;;;;3.70;2.20;;;;;;;;;;5009210;28;21066;-47
2023/01/12 08:11:01;;;;;;;2.73;2.47;;;;;;;;;;5007934;28;20412;-48
2023/01/12 08:13:27;;;;;;;3.40;2.30;;;;;;;;;;5013825;28;20418;-47
2023/01/12 08:15:53;;;;;;;3.33;2.07;;;;;;;;;;5013873;28;20853;-45
2023/01/12 08:18:25;;;;;;;5.10;2.17;;;;;;;;;;5010407;28;20525;-46
2023/01/12 08:20:52;;;;;;;5.10;2.17;;;;;;;;;;5013714;28;20460;-48
2023/01/12 08:23:24;;;;;;;9.63;3.10;;;;;;;;;;5011060;28;20413;-46
2023/01/12 08:25:55;;;;;;;4.43;2.40;;;;;;;;;;5010943;28;20875;-46
2023/01/12 08:28:24;;;;;;;5.83;2.50;;;;;;;;;;5013318;28;20441;-46
2023/01/12 08:30:52;;;;;;;6.80;3.47;;;;;;;;;;5012635;28;20480;-46
2023/01/12 08:33:19;;;;;;;7.10;3.03;;;;;;;;;;5011265;28;20420;-48
2023/01/12 08:35:45;;;;;;;3.70;3.00;;;;;;;;;;5014005;28;20424;-47
2023/01/12 08:38:11;;;;;;;3.30;2.23;;;;;;;;;;5007486;28;20421;-47
2023/01/12 08:46:06;;;;;;;11.83;2.53;;;;;;;;;;5010823;28;20565;-48
2023/01/12 08:48:36;;;;;;;5.63;2.23;;;;;;;;;;5013152;28;20440;-48
2023/01/12 08:51:06;;;;;;;2.00;1.80;;;;;;;;;;5012558;28;20429;-48
2023/01/12 08:53:32;;;;;;;3.40;2.00;;;;;;;;;;5008741;28;20426;-48
2023/01/12 08:55:58;;;;;;;3.20;2.00;;;;;;;;;;5013076;28;20828;-47
2023/01/12 08:58:24;;;;;;;5.13;2.33;;;;;;;;;;5005987;28;20438;-47
2023/01/12 09:00:50;;;;;;;5.03;1.80;;;;;;;;;;5012152;28;20461;-46
2023/01/12 09:03:16;;;;;;;5.13;2.03;;;;;;;;;;5012325;28;20418;-47
2023/01/12 09:05:44;;;;;;;5.00;1.63;;;;;;;;;;5009680;28;20446;-46
2023/01/12 09:08:10;;;;;;;1.93;1.70;;;;;;;;;;5010542;28;20413;-47
2023/01/12 09:10:36;;;;;;;6.03;2.13;;;;;;;;;;5013612;28;20787;-46
2023/01/12 09:13:02;;;;;;;3.47;1.90;;;;;;;;;;5012068;28;20415;-48
2023/01/12 09:15:28;;;;;;;7.47;2.13;;;;;;;;;;5013029;28;20418;-48
2023/01/12 09:17:54;;;;;;;6.50;2.00;;;;;;;;;;5012599;28;20894;-46
2023/01/12 09:20:21;;;;;;;6.23;1.40;;;;;;;;;;5009455;28;20510;-46
2023/01/12 09:22:47;;;;;;;6.67;1.97;;;;;;;;;;5012960;28;20408;-47
2023/01/12 09:25:12;;;;;;;1.77;1.67;;;;;;;;;;5010721;28;20825;-47
2023/01/12 09:27:38;;;;;;;3.07;1.87;;;;;;;;;;5008577;28;20415;-46
2023/01/12 09:30:05;;;;;;;1.40;1.30;;;;;;;;;;5012901;28;20444;-48
2023/01/12 09:32:31;;;;;;;4.47;1.60;;;;;;;;;;5012856;28;20418;-46
2023/01/12 09:35:00;;;;;;;3.53;1.50;;;;;;;;;;5011183;28;20549;-46
2023/01/12 09:37:27;;;;;;;3.27;1.13;;;;;;;;;;5012227;28;20428;-46
2023/01/12 09:39:53;;;;;;;1.60;1.50;;;;;;;;;;5012650;28;20517;-46
2023/01/12 09:48:02;;;;;;;2.83;1.63;;;;;;;;;;5012180;28;20474;-46
2023/01/12 09:50:32;;;;;;;2.17;1.33;;;;;;;;;;5012297;28;20423;-46
2023/01/12 09:52:58;;;;;;;3.33;1.53;;;;;;;;;;5012311;28;20452;-45
2023/01/12 09:55:25;;;;;;;1.50;1.40;;;;;;;;;;5012321;28;20512;-46
2023/01/12 09:57:55;;;;;;;1.33;1.23;;;;;;;;;;5011605;28;20437;-46
2023/01/12 10:00:21;;;;;;;4.83;2.37;;;;;;;;;;5009133;28;20459;-48
2023/01/12 10:02:49;;;;;;;3.27;1.80;;;;;;;;;;5012066;28;20919;-48
2023/01/12 10:05:34;;;;;;;2.10;1.40;;;;;;;;;;5012344;28;20415;-47
2023/01/12 10:08:00;;;;;;;2.60;1.57;;;;;;;;;;5011654;28;20437;-47
2023/01/12 10:10:25;;;;;;;2.13;1.93;;;;;;;;;;5006830;28;20923;-47
2023/01/12 10:12:55;;;;;;;1.87;1.60;;;;;;;;;;5007852;28;20425;-47
2023/01/12 10:15:21;;;;;;;2.20;1.20;;;;;;;;;;5012184;28;20403;-46
2023/01/12 10:18:06;;;;;;;6.87;1.93;;;;;;;;;;5011587;28;20504;-48
2023/01/12 10:20:32;;;;;;;6.40;1.30;;;;;;;;;;5011492;28;20508;-47
2023/01/12 10:23:01;;;;;;;2.10;1.33;;;;;;;;;;5007078;28;20486;-46
2023/01/12 10:25:30;;;;;;;3.33;1.60;;;;;;;;;;5010616;28;20412;-46
2023/01/12 10:27:57;;;;;;;1.83;1.40;;;;;;;;;;5011324;28;20502;-46
2023/01/12 10:30:31;;;;;;;1.50;1.40;;;;;;;;;;5002932;28;20432;-46
2023/01/12 10:32:57;;;;;;;3.10;1.87;;;;;;;;;;4996785;28;20470;-47
2023/01/12 10:35:24;;;;;;;1.87;1.20;;;;;;;;;;4992011;28;20470;-47
2023/01/12 10:37:54;;;;;;;4.07;1.60;;;;;;;;;;5001129;28;20423;-47
2023/01/12 10:40:28;;;;;;;2.80;1.30;;;;;;;;;;4992081;28;20459;-47
2023/01/12 10:43:18;;;;;;;2.30;1.30;;;;;;;;;;5002057;28;20415;-46
2023/01/12 10:46:05;;;;;;;1.90;1.30;;;;;;;;;;4992281;28;20780;-46
2023/01/12 10:48:31;;;;;;;2.37;1.30;;;;;;;;;;5006452;28;20437;-47
2023/01/12 10:50:59;;;;;;;5.03;1.53;;;;;;;;;;4995522;28;20804;-46
2023/01/12 10:53:34;;;;;;;3.00;1.37;;;;;;;;;;4992422;28;20420;-47
2023/01/12 10:56:09;;;;;;;1.37;1.20;;;;;;;;;;5004030;28;20419;-46
2023/01/12 10:58:35;;;;;;;3.23;1.43;;;;;;;;;;5011190;28;20433;-48
2023/01/12 11:01:01;;;;;;;3.00;1.50;;;;;;;;;;5011453;28;20470;-47
2023/01/12 11:03:32;;;;;;;1.50;1.37;;;;;;;;;;5011413;28;20427;-47
2023/01/12 11:06:17;;;;;;;7.20;2.17;;;;;;;;;;5011313;28;20887;-46
2023/01/12 11:08:43;;;;;;;5.10;1.40;;;;;;;;;;5010782;28;20457;-47
2023/01/12 11:11:28;;;;;;;2.83;2.00;;;;;;;;;;5011123;28;20438;-46
2023/01/12 11:13:55;;;;;;;2.83;1.40;;;;;;;;;;5010687;28;20922;-47
2023/01/12 11:16:23;;;;;;;3.70;1.63;;;;;;;;;;5011213;28;20778;-46
2023/01/12 11:18:49;;;;;;;2.50;1.93;;;;;;;;;;5010872;28;20456;-47
2023/01/12 11:21:17;;;;;;;2.50;1.70;;;;;;;;;;5011713;28;20462;-46
2023/01/12 11:23:54;;;;;;;1.50;1.33;;;;;;;;;;5018263;28;20780;-47
2023/01/12 11:26:23;;;;;;;1.50;1.40;;;;;;;;;;5017907;28;20822;-47
2023/01/12 11:28:55;;;;;;;5.93;2.47;;;;;;;;;;5016126;28;20530;-47
2023/01/12 11:31:28;;;;;;;2.63;1.40;;;;;;;;;;5001750;28;20431;-46
2023/01/12 11:34:20;;;;;;;2.50;1.40;;;;;;;;;;5017206;28;20427;-47
2023/01/12 11:36:52;;;;;;;4.60;1.80;;;;;;;;;;4987284;28;20418;-47
2023/01/12 11:39:22;;;;;;;5.60;2.90;;;;;;;;;;5016629;28;20427;-47
2023/01/12 11:44:46;;;;;;;7.83;5.20;;;;;;;;;;4997833;28;20424;-48
2023/01/12 11:47:20;;;;;;;2.30;1.73;;;;;;;;;;5015270;28;20419;-48
2023/01/12 11:49:46;;;;;;;2.97;1.97;;;;;;;;;;5015422;28;20964;-46
2023/01/12 11:52:13;;;;;;;2.83;1.40;;;;;;;;;;5015613;28;20535;-46
2023/01/12 11:54:39;;;;;;;3.87;2.10;;;;;;;;;;5016146;28;20422;-47
2023/01/12 11:57:25;;;;;;;7.60;1.73;;;;;;;;;;5008508;28;20430;-46
2023/01/12 12:00:00;;;;;;;4.93;1.37;;;;;;;;;;5003429;28;20447;-47
2023/01/12 12:02:36;;;;;;;4.90;1.90;;;;;;;;;;5015845;28;20430;-46
2023/01/12 12:05:04;;;;;;;4.43;1.90;;;;;;;;;;5016006;28;20410;-46
2023/01/12 12:07:53;;;;;;;2.50;1.10;;;;;;;;;;5015503;28;20486;-46
2023/01/12 12:10:22;;;;;;;6.40;1.37;;;;;;;;;;4978888;28;20945;-48
2023/01/12 12:13:06;;;;;;;1.43;1.33;;;;;;;;;;5015901;28;20403;-46
2023/01/12 12:15:31;;;;;;;4.60;2.13;;;;;;;;;;4996229;28;20415;-46
2023/01/12 12:18:11;;;;;;;1.50;1.40;;;;;;;;;;5013193;28;20403;-48
2023/01/12 12:20:39;;;;;;;3.73;1.33;;;;;;;;;;5015768;28;21034;-47
2023/01/12 12:23:28;;;;;;;5.70;1.47;;;;;;;;;;5015351;28;20413;-47
2023/01/12 12:26:33;;;;;;;5.77;1.50;;;;;;;;;;4997743;28;20517;-48
2023/01/12 12:29:17;;;;;;;4.60;1.63;;;;;;;;;;4934619;29;20978;-48
2023/01/12 12:31:49;;;;;;;1.70;1.60;;;;;;;;;;4935587;29;20466;-47
2023/01/12 12:34:24;;;;;;;1.53;1.30;;;;;;;;;;4986237;28;20510;-48
2023/01/12 12:36:59;;;;;;;1.53;1.43;;;;;;;;;;5015552;28;20419;-49
2023/01/12 12:39:33;;;;;;;5.70;1.47;;;;;;;;;;5014843;28;20434;-47
2023/01/12 12:45:16;;;;;;;5.63;2.00;;;;;;;;;;5015316;28;20767;-48
2023/01/12 12:48:04;;;;;;;2.37;1.40;;;;;;;;;;5014776;28;20442;-47
2023/01/12 12:50:33;;;;;;;4.77;1.70;;;;;;;;;;5015166;28;20445;-48
2023/01/12 12:53:15;;;;;;;7.50;2.23;;;;;;;;;;5012860;28;20421;-49
2023/01/12 12:55:41;;;;;;;3.53;2.30;;;;;;;;;;5009864;28;20420;-47
2023/01/12 12:58:22;;;;;;;6.13;1.83;;;;;;;;;;4996798;28;20410;-48
2023/01/12 13:00:49;;;;;;;1.67;1.57;;;;;;;;;;4995086;28;21029;-47
2023/01/12 13:03:34;;;;;;;2.17;1.50;;;;;;;;;;4999769;28;20425;-47
2023/01/12 13:06:18;;;;;;;1.00;1.00;;;;;;;;;;4995182;28;20415;-47
2023/01/12 13:08:45;;;;;;;3.50;1.47;;;;;;;;;;5003139;28;20464;-47
2023/01/12 13:11:11;;;;;;;4.23;1.70;;;;;;;;;;5013963;28;20907;-46
2023/01/12 13:13:38;;;;;;;2.13;1.47;;;;;;;;;;5013394;28;20427;-47
2023/01/12 13:16:11;;;;;;;1.33;1.23;;;;;;;;;;5014032;28;20425;-46
2023/01/12 13:18:42;;;;;;;1.63;1.53;;;;;;;;;;5013766;28;20430;-48
2023/01/12 13:21:27;;;;;;;6.20;1.43;;;;;;;;;;5014338;28;20890;-47
2023/01/12 13:23:55;;;;;;;3.50;1.33;;;;;;;;;;5007485;28;20416;-47
2023/01/12 13:26:33;;;;;;;1.60;1.50;;;;;;;;;;4998404;28;20418;-50
2023/01/12 13:29:18;;;;;;;3.63;1.57;;;;;;;;;;5015434;28;20435;-48
2023/01/12 13:31:44;;;;;;;3.53;1.27;;;;;;;;;;5014781;28;20458;-48
2023/01/12 13:34:28;;;;;;;1.30;1.13;;;;;;;;;;5014040;28;20411;-49
2023/01/12 13:37:13;;;;;;;1.27;1.20;;;;;;;;;;4993626;28;20430;-49
2023/01/12 13:39:44;;;;;;;2.10;1.10;;;;;;;;;;5008800;28;20438;-49
2023/01/12 13:44:46;;;;;;;1.80;1.37;;;;;;;;;;5230903;23;20323;-48
2023/01/12 13:47:21;;;;;;;3.37;1.53;;;;;;;;;;4972632;28;20492;-48
2023/01/12 13:49:50;;;;;;;1.40;1.20;;;;;;;;;;4967194;28;20444;-48
2023/01/12 13:52:43;;;;;;;1.87;1.33;;;;;;;;;;4973402;28;20432;-48
2023/01/12 13:55:23;;;;;;;1.17;1.17;;;;;;;;;;4960461;28;20452;-49
2023/01/12 13:57:56;;;;;;;2.00;1.27;;;;;;;;;;4972410;28;20511;-48
2023/01/12 14:00:23;;;;;;;1.60;1.50;;;;;;;;;;4973168;28;20896;-48
2023/01/12 14:02:49;;;;;;;1.30;1.20;;;;;;;;;;4963253;28;20420;-49
2023/01/12 14:05:18;;;;;;;1.50;1.30;;;;;;;;;;4968188;28;20488;-48
2023/01/12 14:07:51;;;;;;;1.60;1.17;;;;;;;;;;4965173;28;20405;-49
2023/01/12 14:13:09;;;;;;;3.43;1.87;;;;;;;;;;5129684;27;20604;-48
2023/01/12 14:18:23;;;;;;;2.03;1.80;;;;;;;;;;5109195;28;20460;-48
2023/01/12 14:20:53;;;;;;;1.40;1.30;;;;;;;;;;5107204;28;20406;-48
2023/01/12 14:23:21;;;;;;;1.73;1.60;;;;;;;;;;5105061;28;20839;-48
2023/01/12 14:26:02;;;;;;;3.37;2.03;;;;;;;;;;5103675;28;20418;-48
2023/01/12 14:28:28;;;;;;;4.30;2.23;;;;;;;;;;5101865;28;20514;-48
2023/01/12 14:30:55;;;;;;;3.13;1.80;;;;;;;;;;5109041;28;20403;-48
2023/01/12 14:33:23;;;;;;;3.10;1.60;;;;;;;;;;5107180;28;20425;-48
2023/01/12 14:35:53;;;;;;;2.27;1.97;;;;;;;;;;5109083;28;20484;-48
2023/01/12 14:38:19;;;;;;;1.50;1.40;;;;;;;;;;5105081;28;20410;-48
2023/01/12 14:40:52;;;;;;;4.97;2.37;;;;;;;;;;5103504;28;20410;-48
2023/01/12 14:46:45;;;;;;;2.13;2.03;;;;;;;;;;5102265;28;20452;-48
2023/01/12 14:48:56;;;;;;;4.17;2.00;;;;;;;;;;5091535;28;20452;-48
2023/01/12 14:51:34;;;;;;;2.53;2.43;;;;;;;;;;5106320;28;21019;-47
2023/01/12 14:54:02;;;;;;;2.10;2.00;;;;;;;;;;5095409;28;20438;-47
2023/01/12 14:56:32;;;;;;;2.10;2.00;;;;;;;;;;5101269;28;20419;-48
2023/01/12 14:59:18;;;;;;;2.10;2.00;;;;;;;;;;5108922;28;20428;-47
2023/01/12 15:01:44;;;;;;;3.73;1.90;;;;;;;;;;5108815;28;20408;-47
2023/01/12 15:04:15;;;;;;;2.10;2.00;;;;;;;;;;5106940;28;20479;-47
2023/01/12 15:06:42;;;;;;;1.80;1.70;;;;;;;;;;5106458;28;20453;-47
2023/01/12 15:09:26;;;;;;;2.10;2.00;;;;;;;;;;5103152;28;20433;-47
2023/01/12 15:11:55;;;;;;;2.20;2.10;;;;;;;;;;5106432;28;20515;-47
2023/01/12 15:14:26;;;;;;;3.73;2.17;;;;;;;;;;5108468;28;20929;-47
2023/01/12 15:25:35;;;;;;;2.83;2.20;;;;;;;;;;5082038;28;21076;-47
2023/01/12 15:28:02;;;;;;;3.67;2.30;;;;;;;;;;5087413;28;20467;-47
2023/01/12 15:30:28;;;;;;;3.30;2.10;;;;;;;;;;5092761;28;20408;-47
2023/01/12 15:32:55;;;;;;;2.50;2.40;;;;;;;;;;5094538;28;20980;-48
2023/01/12 15:35:23;;;;;;;3.03;2.33;;;;;;;;;;5089884;28;20427;-47
2023/01/12 15:37:50;;;;;;;2.43;2.20;;;;;;;;;;5091697;28;20400;-49
2023/01/12 15:40:16;;;;;;;4.33;2.47;;;;;;;;;;5094031;28;20414;-48
2023/01/12 15:42:43;;;;;;;2.80;2.60;;;;;;;;;;5094008;28;20453;-47
2023/01/12 15:45:23;;;;;;;3.13;2.70;;;;;;;;;;5073934;28;20525;-47
2023/01/12 15:47:49;;;;;;;2.00;1.90;;;;;;;;;;5090341;28;20411;-46
2023/01/12 15:50:15;;;;;;;5.80;2.90;;;;;;;;;;5088674;28;20502;-47
2023/01/12 15:52:41;;;;;;;2.90;2.70;;;;;;;;;;5093708;28;20905;-46